ADDS METAR Data INFO
IDs: Format: Raw Decoded Include TAF

Data at: 1610 UTC 14 Aug 2018

KJKJ 141555Z AUTO 02010G14KT 10SM SCT016 19/14 A3003 RMK AO2 LTG DSNT S
KJKJ 141535Z AUTO 35009KT 10SM SCT014 18/14 A3003 RMK AO2 LTG DSNT S
KJKJ 141515Z AUTO 36007KT 10SM SCT012 18/14 A3002 RMK AO2
KJKJ 141455Z AUTO 36008KT 10SM CLR 18/14 A3002 RMK AO2
KJKJ 141435Z AUTO 36008KT 10SM CLR 17/14 A3003 RMK AO2 LTG DSNT S
KJKJ 141415Z AUTO 36006KT 10SM SCT100 16/14 A3002 RMK AO2 LTG DSNT S
KJKJ 141355Z AUTO 36013KT 10SM CLR 16/13 A3001 RMK AO2 LTG DSNT SE AND S
KJKJ 141335Z AUTO 35007KT 10SM SCT090 16/13 A3002 RMK AO2 LTG DSNT S
KJKJ 141315Z AUTO 35004KT 10SM SCT070 SCT090 15/13 A3001 RMK AO2 LTG DSNT S
KJKJ 141255Z AUTO 35006KT 10SM SCT070 BKN090 15/13 A3001 RMK AO2 LTG DSNT SE AND S
KJKJ 141235Z AUTO 36006KT 10SM SCT090 15/13 A3001 RMK AO2 LTG DSNT S
KJKJ 141215Z AUTO 36007KT 10SM SCT070 16/13 A3000 RMK AO2 LTG DSNT SE AND S
KJKJ 141155Z AUTO 36008KT 10SM SCT065 BKN070 16/14 A3000 RMK AO2 LTG DSNT SE THRU SW
KJKJ 141135Z AUTO 35008KT 10SM SCT065 16/14 A2999 RMK AO2 LTG DSNT SE THRU SW
KJKJ 141115Z AUTO 35008KT 10SM BKN065 OVC070 16/14 A3000 RMK AO2 LTG DSNT SE THRU SW
KJKJ 141055Z AUTO 35006KT 10SM OVC065 16/14 A2999 RMK AO2 LTG DSNT SE THRU SW
KJKJ 141035Z AUTO 35003KT 10SM VCTS BKN065 16/14 A2999 RMK AO2 LTG DSNT SE THRU SW
KJKJ 141015Z AUTO 35003KT 10SM SCT065 15/14 A3000 RMK AO2 LTG DSNT S AND SW
KJKJ 140955Z AUTO 35004KT 10SM CLR 16/14 A2998 RMK AO2 LTG DSNT SE
KJKJ 140935Z AUTO 35005KT 10SM CLR 16/14 A2998 RMK AO2 LTG DSNT E AND S
KJKJ 140915Z AUTO 35005KT 10SM CLR 16/14 A2998 RMK AO2 LTG DSNT E
KJKJ 140855Z AUTO 35005KT 10SM CLR 16/14 A2998 RMK AO2 LTG DSNT E AND S P0001
KJKJ 140835Z AUTO 33006KT 10SM -RA SCT011 SCT030 SCT070 16/15 A2999 RMK AO2 LTG DSNT NE THRU SW P0001
KJKJ 140815Z AUTO 01005KT 7SM VCTSRA SCT002 SCT030 BKN060 16/14 A2997 RMK AO2 LTG DSNT E AND SW
KJKJ 140755Z AUTO 05007KT 7SM +TSRA SCT002 BKN022 BKN055 16/14 A2997 RMK AO2 LTG DSNT ALQDS P0001
KJKJ 140735Z AUTO 30006KT 10SM TS SCT036 SCT049 BKN055 18/14 A3002 RMK AO2 LTG DSNT SW THRU N
KJKJ 140715Z AUTO 33005KT 10SM TS SCT047 SCT110 17/14 A2998 RMK AO2 LTG DSNT W AND NW
KJKJ 140655Z AUTO 34008KT 10SM -RA SCT065 SCT085 17/14 A2997 RMK AO2 LTG DSNT W
KJKJ 140635Z AUTO 34003KT 10SM VCTS CLR 18/13 A2996 RMK AO2 LTG DSNT W
KJKJ 140615Z AUTO 04006KT 10SM TS CLR 18/13 A2994 RMK AO2 LTG DSNT W
KJKJ 140555Z AUTO 03006KT 10SM CLR 18/13 A2995 RMK AO2 LTG DSNT W
KJKJ 140535Z AUTO 01008KT 10SM SCT100 18/13 A2996 RMK AO2
KJKJ 140515Z AUTO 05007KT 10SM SCT030 SCT060 BKN100 18/13 A2996 RMK AO2
KJKJ 140455Z AUTO 02008KT 10SM -RA SCT032 SCT060 SCT110 19/13 A2997 RMK AO2 LTG DSNT E AND SE
KJKJ 140435Z AUTO 01007KT 10SM SCT110 19/13 A2999 RMK AO2 LTG DSNT SW
KJKJ 140415Z AUTO 36010G15KT 10SM SCT075 BKN110 19/13 A2998 RMK AO2
KJKJ 140355Z AUTO 34010G14KT 7SM RA SCT005 BKN027 BKN070 19/14 A2998 RMK AO2 LTG DSNT SE
KJKJ 140335Z AUTO 34012G16KT 10SM VCTS SCT065 SCT110 22/12 A2997 RMK AO2 LTG DSNT S THRU NW
KJKJ 140315Z AUTO 36009G14KT 10SM SCT065 120 23/12 A2994 RMK AO2 LTG DSNT W
KJKJ 140255Z AUTO 36010G16KT 10SM SCT120 23/12 A2993 RMK AO2
KJKJ 140235Z AUTO 36010G15KT 10SM CLR 24/13 A2993 RMK AO2
KJKJ 140215Z AUTO 35008KT 10SM CLR 24/14 A2992 RMK AO2
KJKJ 140155Z AUTO 36006KT 10SM CLR 26/16 A2991 RMK AO2
KJKJ 140135Z AUTO 36008KT 10SM CLR 27/16 A2990 RMK AO2
KJKJ 140115Z AUTO 34012G16KT 10SM CLR 28/19 A2989 RMK AO2
KJKJ 140055Z AUTO 34006KT 7SM CLR 28/19 A2988 RMK AO2
KJKJ 140035Z AUTO 34005KT 10SM CLR 29/19 A2988 RMK AO2
KJKJ 140015Z AUTO 33005KT 10SM SCT070 30/18 A2988 RMK AO2
KJKJ 132355Z AUTO 33008KT 10SM SCT070 31/17 A2987 RMK AO2
KJKJ 132335Z AUTO 32006KT 10SM CLR 31/18 A2987 RMK AO2
KJKJ 132315Z AUTO 31006KT 10SM CLR 31/18 A2988 RMK AO2
KJKJ 132255Z AUTO 31008KT 10SM SCT090 32/18 A2988 RMK AO2
KJKJ 132236Z AUTO 31007KT 10SM CLR 32/18 A2987 RMK AO2
KJKJ 132215Z AUTO 30009KT 10SM CLR 33/18 A2987 RMK AO2
KJKJ 132155Z AUTO 27011G15KT 10SM CLR 33/18 A2987 RMK AO2
KJKJ 132135Z AUTO 24011KT 10SM CLR 33/17 A2987 RMK AO2
KJKJ 132115Z AUTO 25010G17KT 10SM CLR 33/17 A2987 RMK AO2
KJKJ 132055Z AUTO 23010G17KT 10SM CLR 33/18 A2987 RMK AO2
KJKJ 132035Z AUTO 25013KT 10SM CLR 33/17 A2987 RMK AO2
KJKJ 132015Z AUTO 22010G16KT 10SM CLR 33/18 A2987 RMK AO2
KJKJ 131955Z AUTO 23013G18KT 10SM CLR 32/17 A2987 RMK AO2
KJKJ 131935Z AUTO 21011G16KT 10SM CLR 32/17 A2987 RMK AO2
KJKJ 131915Z AUTO 22011G17KT 10SM CLR 32/17 A2987 RMK AO2
KJKJ 131855Z AUTO 21013KT 10SM CLR 32/17 A2987 RMK AO2
KJKJ 131835Z AUTO 23014G20KT 10SM CLR 32/17 A2987 RMK AO2
KJKJ 131815Z AUTO 23011G17KT 10SM CLR 31/18 A2988 RMK AO2
KJKJ 131755Z AUTO 24011G15KT 10SM CLR 31/18 A2988 RMK AO2
KJKJ 131735Z AUTO 22013G18KT 10SM CLR 30/18 A2988 RMK AO2
KJKJ 131715Z AUTO 23012KT 10SM CLR 30/19 A2989 RMK AO2
KJKJ 131655Z AUTO 22011G16KT 10SM CLR 29/19 A2990 RMK AO2
KJKJ 131635Z AUTO 22011KT 10SM CLR 29/19 A2989 RMK AO2
KJKJ 131615Z AUTO 22012G18KT 10SM CLR 29/18 A2989 RMK AO2
KJKJ 131555Z AUTO 19011G15KT 10SM CLR 28/19 A2989 RMK AO2
KJKJ 131535Z AUTO 20010G16KT 10SM CLR 27/19 A2989 RMK AO2
KJKJ 131515Z AUTO 19008G15KT 10SM CLR 26/19 A2990 RMK AO2
KJKJ 131455Z AUTO 18011G16KT 10SM CLR 25/19 A2990 RMK AO2
KJKJ 131435Z AUTO 18009G15KT 10SM CLR 24/19 A2990 RMK AO2
KJKJ 131415Z AUTO 17008KT 10SM CLR 23/19 A2991 RMK AO2
KJKJ 131355Z AUTO 17009KT 10SM CLR 22/19 A2991 RMK AO2
KJKJ 131335Z AUTO 16009KT 10SM CLR 22/19 A2992 RMK AO2
KJKJ 131316Z AUTO 16007KT 10SM CLR 21/19 A2991 RMK AO2
KJKJ 131255Z AUTO 16009KT 10SM CLR 21/19 A2991 RMK AO2
KJKJ 131235Z AUTO 17009KT 10SM CLR 21/18 A2991 RMK AO2
KJKJ 131215Z AUTO 16009KT 7SM CLR 20/18 A2991 RMK AO2
KJKJ 131155Z AUTO 16008KT 7SM CLR 20/18 A2991 RMK AO2
KJKJ 131135Z AUTO 17005KT 10SM CLR 21/19 A2991 RMK AO2
KJKJ 131116Z AUTO 16008KT 10SM CLR 21/19 A2991 RMK AO2
KJKJ 131055Z AUTO 17009KT 10SM CLR 21/19 A2990 RMK AO2
KJKJ 131035Z AUTO 16008KT 10SM CLR 21/19 A2991 RMK AO2
KJKJ 131015Z AUTO 17008KT 10SM CLR 22/19 A2991 RMK AO2
KJKJ 130955Z AUTO 17008KT 10SM CLR 22/19 A2991 RMK AO2
KJKJ 130935Z AUTO 17009KT 10SM CLR 22/20 A2991 RMK AO2
KJKJ 130915Z AUTO 17009G14KT 10SM CLR 22/20 A2990 RMK AO2
KJKJ 130855Z AUTO 17011KT 10SM CLR 22/20 A2991 RMK AO2
KJKJ 130836Z AUTO 16011G15KT 10SM CLR 22/20 A2991 RMK AO2
KJKJ 130815Z AUTO 17011KT 10SM CLR 22/21 A2991 RMK AO2
KJKJ 130755Z AUTO 17012G18KT 10SM CLR 23/21 A2991 RMK AO2
KJKJ 130736Z AUTO 17013KT 10SM CLR 23/21 A2991 RMK AO2
KJKJ 130715Z AUTO 17012KT 10SM CLR 23/21 A2992 RMK AO2
KJKJ 130655Z AUTO 16012KT 10SM CLR 23/21 A2992 RMK AO2
KJKJ 130635Z AUTO 16011KT 10SM CLR 23/21 A2993 RMK AO2
KJKJ 130615Z AUTO 17013G17KT 10SM CLR 23/21 A2993 RMK AO2
KJKJ 130555Z AUTO 16013G17KT 10SM CLR 24/21 A2993 RMK AO2
KJKJ 130535Z AUTO 17013KT 10SM CLR 24/22 A2993 RMK AO2
KJKJ 130515Z AUTO 17015KT 10SM CLR 24/22 A2992 RMK AO2
KJKJ 130455Z AUTO 16013KT 10SM CLR 24/22 A2992 RMK AO2
KJKJ 130435Z AUTO 16011KT 10SM CLR 24/22 A2993 RMK AO2
KJKJ 130415Z AUTO 16012KT 10SM CLR 24/22 A2993 RMK AO2